Aviation Digital Data Service (ADDS)

Output produced by METARs form (2310 UTC 15 August 2018)
found at http://www.aviationweather.gov/adds/metars/
 
TAF MDST 152200Z 1600/1700 11008KT 9999 SCT018 
     PROB30 1600/1606 7000 -SHRA FEW016CB BKN018
       
TAF MDPP 152200Z 1600/1700 07010KT 9999 SCT020 
     PROB30 1600/1606 7000 ?TSRA FEW016CB BKN018 SCT300 
     BECMG 1604/1606 00000KT
       
TAF MDLR 152200Z 1600/1700 00000KT 9999 FEW020CB SCT022 
     PROB30 1602/1608 7000 -TSRA FEW016CB BKN018 
     BECMG 1613/1615 12012KT
       
TAF MDSD 152200Z 1600/1700 04008KT 9999 FEW018CB SCT020 
     PROB30 
     TEMPO 1600/1606 7000 -TSRA FEW016CB BKN016 SCT070
       
TAF MDBH 152200Z 1600/1700 13012KT 9999 FEW020CB SCT022 SCT300
       
TAF MDPC 152200Z 1600/1700 00000KT 8000 VCSH SCT018 
     BECMG 1602/1604 05004KT 9999 FEW018